sensor_id;sensor_type;location;lat;lon;timestamp;temperature;humidity
1996;DHT22;38556;47.068;15.408;2023-08-06T00:01:16;17.30;99.90
1996;DHT22;38556;47.068;15.408;2023-08-06T00:03:46;17.30;99.90
1996;DHT22;38556;47.068;15.408;2023-08-06T00:06:15;17.20;99.90
1996;DHT22;38556;47.068;15.408;2023-08-06T00:08:42;17.20;99.90
1996;DHT22;38556;47.068;15.408;2023-08-06T00:11:09;17.30;99.90
1996;DHT22;38556;47.068;15.408;2023-08-06T00:13:37;17.30;99.90
1996;DHT22;38556;47.068;15.408;2023-08-06T00:16:10;17.30;99.90
1996;DHT22;38556;47.068;15.408;2023-08-06T00:18:39;17.40;99.90
1996;DHT22;38556;47.068;15.408;2023-08-06T00:21:06;17.20;99.90
1996;DHT22;38556;47.068;15.408;2023-08-06T00:23:34;17.30;99.90
1996;DHT22;38556;47.068;15.408;2023-08-06T00:26:02;17.30;99.90
1996;DHT22;38556;47.068;15.408;2023-08-06T00:28:29;17.30;99.90
1996;DHT22;38556;47.068;15.408;2023-08-06T00:30:57;17.40;99.90
1996;DHT22;38556;47.068;15.408;2023-08-06T00:33:24;17.50;99.90
1996;DHT22;38556;47.068;15.408;2023-08-06T00:35:51;17.60;99.90
1996;DHT22;38556;47.068;15.408;2023-08-06T00:38:19;17.70;99.90
1996;DHT22;38556;47.068;15.408;2023-08-06T00:40:47;17.70;99.90
1996;DHT22;38556;47.068;15.408;2023-08-06T00:43:14;17.80;99.90
1996;DHT22;38556;47.068;15.408;2023-08-06T00:45:43;17.90;99.90
1996;DHT22;38556;47.068;15.408;2023-08-06T00:48:10;17.90;99.90
1996;DHT22;38556;47.068;15.408;2023-08-06T00:50:37;17.90;99.90
1996;DHT22;38556;47.068;15.408;2023-08-06T00:55:33;18.00;99.90
1996;DHT22;38556;47.068;15.408;2023-08-06T00:58:02;18.00;99.90
1996;DHT22;38556;47.068;15.408;2023-08-06T01:00:30;18.00;99.90
1996;DHT22;38556;47.068;15.408;2023-08-06T01:02:57;17.90;99.90
1996;DHT22;38556;47.068;15.408;2023-08-06T01:05:25;17.70;99.90
1996;DHT22;38556;47.068;15.408;2023-08-06T01:08:09;17.40;99.90
1996;DHT22;38556;47.068;15.408;2023-08-06T01:10:47;17.40;99.90
1996;DHT22;38556;47.068;15.408;2023-08-06T01:13:24;17.50;99.90
1996;DHT22;38556;47.068;15.408;2023-08-06T01:15:55;17.60;99.90
1996;DHT22;38556;47.068;15.408;2023-08-06T01:18:23;17.60;99.90
1996;DHT22;38556;47.068;15.408;2023-08-06T01:20:52;17.70;99.90
1996;DHT22;38556;47.068;15.408;2023-08-06T01:23:19;17.70;99.90
1996;DHT22;38556;47.068;15.408;2023-08-06T01:25:56;17.70;99.90
1996;DHT22;38556;47.068;15.408;2023-08-06T01:28:32;17.80;99.90
1996;DHT22;38556;47.068;15.408;2023-08-06T01:31:02;17.80;99.90
1996;DHT22;38556;47.068;15.408;2023-08-06T01:33:32;17.90;99.90
1996;DHT22;38556;47.068;15.408;2023-08-06T01:36:04;17.90;99.90
1996;DHT22;38556;47.068;15.408;2023-08-06T01:38:32;17.90;99.90
1996;DHT22;38556;47.068;15.408;2023-08-06T01:40:59;17.90;99.90
1996;DHT22;38556;47.068;15.408;2023-08-06T01:43:27;17.90;99.90
1996;DHT22;38556;47.068;15.408;2023-08-06T01:45:54;17.90;99.90
1996;DHT22;38556;47.068;15.408;2023-08-06T01:48:21;17.90;99.90
1996;DHT22;38556;47.068;15.408;2023-08-06T01:50:49;18.00;99.90
1996;DHT22;38556;47.068;15.408;2023-08-06T01:53:17;18.00;99.90
1996;DHT22;38556;47.068;15.408;2023-08-06T01:55:47;17.90;99.90
1996;DHT22;38556;47.068;15.408;2023-08-06T01:58:15;17.90;99.90
1996;DHT22;38556;47.068;15.408;2023-08-06T02:00:42;17.90;99.90
1996;DHT22;38556;47.068;15.408;2023-08-06T02:03:09;17.90;99.90
1996;DHT22;38556;47.068;15.408;2023-08-06T02:05:37;17.80;99.90
1996;DHT22;38556;47.068;15.408;2023-08-06T02:08:04;17.80;99.90
1996;DHT22;38556;47.068;15.408;2023-08-06T02:10:32;17.80;99.90
1996;DHT22;38556;47.068;15.408;2023-08-06T02:13:00;17.80;99.90
1996;DHT22;38556;47.068;15.408;2023-08-06T02:15:27;17.80;99.90
1996;DHT22;38556;47.068;15.408;2023-08-06T02:17:54;17.80;99.90
1996;DHT22;38556;47.068;15.408;2023-08-06T02:20:22;17.80;99.90
1996;DHT22;38556;47.068;15.408;2023-08-06T02:22:49;17.80;99.90
1996;DHT22;38556;47.068;15.408;2023-08-06T02:25:16;17.80;99.90
1996;DHT22;38556;47.068;15.408;2023-08-06T02:27:45;17.80;99.90
1996;DHT22;38556;47.068;15.408;2023-08-06T02:30:12;17.80;99.90
1996;DHT22;38556;47.068;15.408;2023-08-06T02:32:39;17.80;99.90
1996;DHT22;38556;47.068;15.408;2023-08-06T02:35:07;17.80;99.90
1996;DHT22;38556;47.068;15.408;2023-08-06T02:37:34;17.80;99.90
1996;DHT22;38556;47.068;15.408;2023-08-06T02:40:01;17.80;99.90
1996;DHT22;38556;47.068;15.408;2023-08-06T02:42:29;17.80;99.90
1996;DHT22;38556;47.068;15.408;2023-08-06T02:44:57;17.80;99.90
1996;DHT22;38556;47.068;15.408;2023-08-06T02:47:24;17.80;99.90
1996;DHT22;38556;47.068;15.408;2023-08-06T02:49:52;17.80;99.90
1996;DHT22;38556;47.068;15.408;2023-08-06T02:52:19;17.80;99.90
1996;DHT22;38556;47.068;15.408;2023-08-06T02:54:46;17.70;99.90
1996;DHT22;38556;47.068;15.408;2023-08-06T02:57:14;17.70;99.90
1996;DHT22;38556;47.068;15.408;2023-08-06T02:59:41;17.70;99.90
1996;DHT22;38556;47.068;15.408;2023-08-06T03:02:09;17.70;99.90
1996;DHT22;38556;47.068;15.408;2023-08-06T03:04:37;17.70;99.90
1996;DHT22;38556;47.068;15.408;2023-08-06T03:07:04;17.70;99.90
1996;DHT22;38556;47.068;15.408;2023-08-06T03:09:31;17.70;99.90
1996;DHT22;38556;47.068;15.408;2023-08-06T03:11:59;17.70;99.90
1996;DHT22;38556;47.068;15.408;2023-08-06T03:14:26;17.70;99.90
1996;DHT22;38556;47.068;15.408;2023-08-06T03:16:53;17.70;99.90
1996;DHT22;38556;47.068;15.408;2023-08-06T03:19:22;17.60;99.90
1996;DHT22;38556;47.068;15.408;2023-08-06T03:21:49;17.60;99.90
1996;DHT22;38556;47.068;15.408;2023-08-06T03:24:16;17.30;99.90
1996;DHT22;38556;47.068;15.408;2023-08-06T03:26:43;17.20;99.90
1996;DHT22;38556;47.068;15.408;2023-08-06T03:29:10;17.00;99.90
1996;DHT22;38556;47.068;15.408;2023-08-06T03:31:36;17.00;99.90
1996;DHT22;38556;47.068;15.408;2023-08-06T03:34:04;17.20;99.90
1996;DHT22;38556;47.068;15.408;2023-08-06T03:36:33;17.20;99.90
1996;DHT22;38556;47.068;15.408;2023-08-06T03:39:00;17.20;99.90
1996;DHT22;38556;47.068;15.408;2023-08-06T03:41:28;17.30;99.90
1996;DHT22;38556;47.068;15.408;2023-08-06T03:43:55;17.40;99.90
1996;DHT22;38556;47.068;15.408;2023-08-06T03:46:22;17.40;99.90
1996;DHT22;38556;47.068;15.408;2023-08-06T03:48:49;17.40;99.90
1996;DHT22;38556;47.068;15.408;2023-08-06T03:51:17;17.40;99.90
1996;DHT22;38556;47.068;15.408;2023-08-06T03:53:45;17.40;99.90
1996;DHT22;38556;47.068;15.408;2023-08-06T03:56:12;17.40;99.90
1996;DHT22;38556;47.068;15.408;2023-08-06T03:58:40;17.50;99.90
1996;DHT22;38556;47.068;15.408;2023-08-06T04:03:35;18.10;99.90
1996;DHT22;38556;47.068;15.408;2023-08-06T04:06:02;17.30;99.90
1996;DHT22;38556;47.068;15.408;2023-08-06T04:08:30;17.00;99.90
1996;DHT22;38556;47.068;15.408;2023-08-06T04:10:59;16.90;99.90
1996;DHT22;38556;47.068;15.408;2023-08-06T04:13:26;17.10;99.90
1996;DHT22;38556;47.068;15.408;2023-08-06T04:15:53;17.10;99.90
1996;DHT22;38556;47.068;15.408;2023-08-06T04:18:21;17.20;99.90
1996;DHT22;38556;47.068;15.408;2023-08-06T04:20:48;17.20;99.90
1996;DHT22;38556;47.068;15.408;2023-08-06T04:23:18;17.30;99.90
1996;DHT22;38556;47.068;15.408;2023-08-06T04:25:45;17.30;99.90
1996;DHT22;38556;47.068;15.408;2023-08-06T04:28:14;17.30;99.90
1996;DHT22;38556;47.068;15.408;2023-08-06T04:30:41;17.10;99.90
1996;DHT22;38556;47.068;15.408;2023-08-06T04:33:08;16.90;99.90
1996;DHT22;38556;47.068;15.408;2023-08-06T04:35:35;17.00;99.90
1996;DHT22;38556;47.068;15.408;2023-08-06T04:38:03;17.00;99.90
1996;DHT22;38556;47.068;15.408;2023-08-06T04:40:32;17.10;99.90
1996;DHT22;38556;47.068;15.408;2023-08-06T04:42:59;17.10;99.90
1996;DHT22;38556;47.068;15.408;2023-08-06T04:45:28;17.20;99.90
1996;DHT22;38556;47.068;15.408;2023-08-06T04:47:55;17.20;99.90
1996;DHT22;38556;47.068;15.408;2023-08-06T04:50:23;17.20;99.90
1996;DHT22;38556;47.068;15.408;2023-08-06T04:52:50;17.30;99.90
1996;DHT22;38556;47.068;15.408;2023-08-06T04:55:17;17.30;99.90
1996;DHT22;38556;47.068;15.408;2023-08-06T04:57:44;17.30;99.90
1996;DHT22;38556;47.068;15.408;2023-08-06T05:00:13;17.30;99.90
1996;DHT22;38556;47.068;15.408;2023-08-06T05:02:42;17.30;99.90
1996;DHT22;38556;47.068;15.408;2023-08-06T05:05:08;17.30;99.90
1996;DHT22;38556;47.068;15.408;2023-08-06T05:07:36;17.30;99.90
1996;DHT22;38556;47.068;15.408;2023-08-06T05:10:04;17.30;99.90
1996;DHT22;38556;47.068;15.408;2023-08-06T05:12:31;17.30;99.90
1996;DHT22;38556;47.068;15.408;2023-08-06T05:14:58;17.30;99.90
1996;DHT22;38556;47.068;15.408;2023-08-06T05:17:25;17.40;99.90
1996;DHT22;38556;47.068;15.408;2023-08-06T05:19:55;17.40;99.90
1996;DHT22;38556;47.068;15.408;2023-08-06T05:22:22;17.20;99.90
1996;DHT22;38556;47.068;15.408;2023-08-06T05:24:50;17.30;99.90
1996;DHT22;38556;47.068;15.408;2023-08-06T05:27:17;17.30;99.90
1996;DHT22;38556;47.068;15.408;2023-08-06T05:29:45;17.40;99.90
1996;DHT22;38556;47.068;15.408;2023-08-06T05:32:12;17.40;99.90
1996;DHT22;38556;47.068;15.408;2023-08-06T05:34:39;17.40;99.90
1996;DHT22;38556;47.068;15.408;2023-08-06T05:37:09;17.40;99.90
1996;DHT22;38556;47.068;15.408;2023-08-06T05:39:36;17.50;99.90
1996;DHT22;38556;47.068;15.408;2023-08-06T05:42:03;17.50;99.90
1996;DHT22;38556;47.068;15.408;2023-08-06T05:44:31;17.50;99.90
1996;DHT22;38556;47.068;15.408;2023-08-06T05:46:59;17.50;99.90
1996;DHT22;38556;47.068;15.408;2023-08-06T05:49:26;17.60;99.90
1996;DHT22;38556;47.068;15.408;2023-08-06T05:51:53;17.60;99.90
1996;DHT22;38556;47.068;15.408;2023-08-06T05:54:22;17.60;99.90
1996;DHT22;38556;47.068;15.408;2023-08-06T05:56:49;17.70;99.90
1996;DHT22;38556;47.068;15.408;2023-08-06T05:59:16;17.70;99.90
1996;DHT22;38556;47.068;15.408;2023-08-06T06:01:44;17.70;99.90
1996;DHT22;38556;47.068;15.408;2023-08-06T06:04:11;17.80;99.90
1996;DHT22;38556;47.068;15.408;2023-08-06T06:06:38;17.70;99.90
1996;DHT22;38556;47.068;15.408;2023-08-06T06:09:07;17.70;99.90
1996;DHT22;38556;47.068;15.408;2023-08-06T06:11:36;17.70;99.90
1996;DHT22;38556;47.068;15.408;2023-08-06T06:14:03;17.60;99.90
1996;DHT22;38556;47.068;15.408;2023-08-06T06:16:32;17.60;99.90
1996;DHT22;38556;47.068;15.408;2023-08-06T06:18:59;17.40;99.90
1996;DHT22;38556;47.068;15.408;2023-08-06T06:21:27;17.20;99.90
1996;DHT22;38556;47.068;15.408;2023-08-06T06:23:54;16.90;99.90
1996;DHT22;38556;47.068;15.408;2023-08-06T06:26:22;16.90;99.90
1996;DHT22;38556;47.068;15.408;2023-08-06T06:28:51;16.90;99.90
1996;DHT22;38556;47.068;15.408;2023-08-06T06:31:18;17.10;99.90
1996;DHT22;38556;47.068;15.408;2023-08-06T06:36:13;17.00;99.90
1996;DHT22;38556;47.068;15.408;2023-08-06T06:38:40;17.10;99.90
1996;DHT22;38556;47.068;15.408;2023-08-06T06:41:08;17.10;99.90
1996;DHT22;38556;47.068;15.408;2023-08-06T06:43:35;17.10;99.90
1996;DHT22;38556;47.068;15.408;2023-08-06T06:46:05;17.40;99.90
1996;DHT22;38556;47.068;15.408;2023-08-06T06:48:33;17.40;99.90
1996;DHT22;38556;47.068;15.408;2023-08-06T06:51:00;17.50;99.90
1996;DHT22;38556;47.068;15.408;2023-08-06T06:53:28;17.60;99.90
1996;DHT22;38556;47.068;15.408;2023-08-06T06:55:55;17.70;99.90
1996;DHT22;38556;47.068;15.408;2023-08-06T06:58:22;17.80;99.90
1996;DHT22;38556;47.068;15.408;2023-08-06T07:00:50;17.80;99.90
1996;DHT22;38556;47.068;15.408;2023-08-06T07:03:20;17.90;99.90
1996;DHT22;38556;47.068;15.408;2023-08-06T07:05:47;17.90;99.90
1996;DHT22;38556;47.068;15.408;2023-08-06T07:08:14;18.00;99.90
1996;DHT22;38556;47.068;15.408;2023-08-06T07:10:42;18.00;99.90
1996;DHT22;38556;47.068;15.408;2023-08-06T07:13:09;18.00;99.90
1996;DHT22;38556;47.068;15.408;2023-08-06T07:15:37;18.00;99.90
1996;DHT22;38556;47.068;15.408;2023-08-06T07:18:05;18.10;99.90
1996;DHT22;38556;47.068;15.408;2023-08-06T07:20:33;18.10;99.90
1996;DHT22;38556;47.068;15.408;2023-08-06T07:23:00;18.10;99.90
1996;DHT22;38556;47.068;15.408;2023-08-06T07:25:28;18.20;99.90
1996;DHT22;38556;47.068;15.408;2023-08-06T07:27:55;18.20;99.90
1996;DHT22;38556;47.068;15.408;2023-08-06T07:30:23;18.20;99.90
1996;DHT22;38556;47.068;15.408;2023-08-06T07:32:50;18.10;99.90
1996;DHT22;38556;47.068;15.408;2023-08-06T07:35:17;18.20;99.90
1996;DHT22;38556;47.068;15.408;2023-08-06T07:37:46;18.20;99.90
1996;DHT22;38556;47.068;15.408;2023-08-06T07:42:41;18.20;99.90
1996;DHT22;38556;47.068;15.408;2023-08-06T07:47:37;18.10;99.90
1996;DHT22;38556;47.068;15.408;2023-08-06T07:50:04;18.10;99.90
1996;DHT22;38556;47.068;15.408;2023-08-06T07:52:32;18.10;99.90
1996;DHT22;38556;47.068;15.408;2023-08-06T07:55:01;18.10;99.90
1996;DHT22;38556;47.068;15.408;2023-08-06T07:57:30;18.10;99.90
1996;DHT22;38556;47.068;15.408;2023-08-06T07:59:58;18.10;99.90
1996;DHT22;38556;47.068;15.408;2023-08-06T08:02:25;18.00;99.90
1996;DHT22;38556;47.068;15.408;2023-08-06T08:04:52;17.90;99.90
1996;DHT22;38556;47.068;15.408;2023-08-06T08:07:20;17.90;99.90
1996;DHT22;38556;47.068;15.408;2023-08-06T08:09:47;17.80;99.90
1996;DHT22;38556;47.068;15.408;2023-08-06T08:12:15;17.90;99.90
1996;DHT22;38556;47.068;15.408;2023-08-06T08:14:43;17.90;99.90
1996;DHT22;38556;47.068;15.408;2023-08-06T08:17:11;18.00;99.90
1996;DHT22;38556;47.068;15.408;2023-08-06T08:19:39;18.00;99.90
1996;DHT22;38556;47.068;15.408;2023-08-06T08:22:07;18.10;99.90
1996;DHT22;38556;47.068;15.408;2023-08-06T08:24:34;18.20;99.90
1996;DHT22;38556;47.068;15.408;2023-08-06T08:27:02;18.20;99.90
1996;DHT22;38556;47.068;15.408;2023-08-06T08:29:30;18.30;99.90
1996;DHT22;38556;47.068;15.408;2023-08-06T08:31:58;18.30;99.90
1996;DHT22;38556;47.068;15.408;2023-08-06T08:34:25;18.30;99.90
1996;DHT22;38556;47.068;15.408;2023-08-06T08:36:52;18.30;99.90
1996;DHT22;38556;47.068;15.408;2023-08-06T08:39:19;18.40;99.90
1996;DHT22;38556;47.068;15.408;2023-08-06T08:41:47;18.40;99.90
1996;DHT22;38556;47.068;15.408;2023-08-06T08:44:16;18.50;99.90
1996;DHT22;38556;47.068;15.408;2023-08-06T08:46:45;18.40;99.90
1996;DHT22;38556;47.068;15.408;2023-08-06T08:49:14;18.40;99.90
1996;DHT22;38556;47.068;15.408;2023-08-06T08:51:41;18.10;99.90
1996;DHT22;38556;47.068;15.408;2023-08-06T08:54:11;18.20;99.90
1996;DHT22;38556;47.068;15.408;2023-08-06T08:56:40;18.30;99.90
1996;DHT22;38556;47.068;15.408;2023-08-06T08:59:07;18.40;99.90
1996;DHT22;38556;47.068;15.408;2023-08-06T09:01:35;18.50;99.90
1996;DHT22;38556;47.068;15.408;2023-08-06T09:04:04;18.60;99.90
1996;DHT22;38556;47.068;15.408;2023-08-06T09:06:35;18.60;99.90
1996;DHT22;38556;47.068;15.408;2023-08-06T09:09:08;18.60;99.90
1996;DHT22;38556;47.068;15.408;2023-08-06T09:11:38;18.70;99.90
1996;DHT22;38556;47.068;15.408;2023-08-06T09:14:07;18.70;99.90
1996;DHT22;38556;47.068;15.408;2023-08-06T09:16:34;18.80;99.90
1996;DHT22;38556;47.068;15.408;2023-08-06T09:19:08;18.80;99.90
1996;DHT22;38556;47.068;15.408;2023-08-06T09:21:37;18.80;99.90
1996;DHT22;38556;47.068;15.408;2023-08-06T09:24:08;18.80;99.90
1996;DHT22;38556;47.068;15.408;2023-08-06T09:26:36;18.80;99.90
1996;DHT22;38556;47.068;15.408;2023-08-06T09:29:05;18.80;99.90
1996;DHT22;38556;47.068;15.408;2023-08-06T09:31:34;18.70;99.90
1996;DHT22;38556;47.068;15.408;2023-08-06T09:34:13;18.60;99.90
1996;DHT22;38556;47.068;15.408;2023-08-06T09:36:41;18.60;99.90
1996;DHT22;38556;47.068;15.408;2023-08-06T09:39:16;18.80;99.90
1996;DHT22;38556;47.068;15.408;2023-08-06T09:41:44;18.80;99.90
1996;DHT22;38556;47.068;15.408;2023-08-06T09:44:16;18.90;99.90
1996;DHT22;38556;47.068;15.408;2023-08-06T09:46:47;18.90;99.90
1996;DHT22;38556;47.068;15.408;2023-08-06T09:49:18;19.00;99.90
1996;DHT22;38556;47.068;15.408;2023-08-06T09:51:47;19.10;99.90
1996;DHT22;38556;47.068;15.408;2023-08-06T09:54:17;19.10;99.90
1996;DHT22;38556;47.068;15.408;2023-08-06T09:56:45;19.00;99.90
1996;DHT22;38556;47.068;15.408;2023-08-06T09:59:12;19.10;99.90
1996;DHT22;38556;47.068;15.408;2023-08-06T10:01:41;19.10;99.90
1996;DHT22;38556;47.068;15.408;2023-08-06T10:04:09;19.20;99.90
1996;DHT22;38556;47.068;15.408;2023-08-06T10:06:39;19.30;99.90
1996;DHT22;38556;47.068;15.408;2023-08-06T10:09:06;19.30;99.90
1996;DHT22;38556;47.068;15.408;2023-08-06T10:11:36;19.40;99.90
1996;DHT22;38556;47.068;15.408;2023-08-06T10:14:08;19.50;99.90
1996;DHT22;38556;47.068;15.408;2023-08-06T10:16:37;19.50;99.90
1996;DHT22;38556;47.068;15.408;2023-08-06T10:19:08;19.60;99.90
1996;DHT22;38556;47.068;15.408;2023-08-06T10:21:39;19.70;99.90
1996;DHT22;38556;47.068;15.408;2023-08-06T10:24:07;19.80;99.90
1996;DHT22;38556;47.068;15.408;2023-08-06T10:26:36;19.80;99.90
1996;DHT22;38556;47.068;15.408;2023-08-06T10:32:04;20.10;99.90
1996;DHT22;38556;47.068;15.408;2023-08-06T10:34:53;20.20;99.90
1996;DHT22;38556;47.068;15.408;2023-08-06T10:37:21;20.20;99.90
1996;DHT22;38556;47.068;15.408;2023-08-06T10:39:50;19.80;99.90
1996;DHT22;38556;47.068;15.408;2023-08-06T10:42:27;19.90;99.90
1996;DHT22;38556;47.068;15.408;2023-08-06T10:45:15;20.10;99.90
1996;DHT22;38556;47.068;15.408;2023-08-06T10:47:42;19.90;99.90
1996;DHT22;38556;47.068;15.408;2023-08-06T10:50:12;20.00;99.90
1996;DHT22;38556;47.068;15.408;2023-08-06T10:52:43;20.20;99.90
1996;DHT22;38556;47.068;15.408;2023-08-06T10:57:38;20.40;99.90
1996;DHT22;38556;47.068;15.408;2023-08-06T11:00:07;20.40;99.90
1996;DHT22;38556;47.068;15.408;2023-08-06T11:02:35;20.70;99.90
1996;DHT22;38556;47.068;15.408;2023-08-06T11:05:07;21.00;99.90
1996;DHT22;38556;47.068;15.408;2023-08-06T11:07:34;21.20;99.90
1996;DHT22;38556;47.068;15.408;2023-08-06T11:10:04;21.30;99.90
1996;DHT22;38556;47.068;15.408;2023-08-06T11:12:33;21.70;99.90
1996;DHT22;38556;47.068;15.408;2023-08-06T11:15:00;21.70;99.90
1996;DHT22;38556;47.068;15.408;2023-08-06T11:17:30;22.00;99.90
1996;DHT22;38556;47.068;15.408;2023-08-06T11:19:59;22.10;99.90
1996;DHT22;38556;47.068;15.408;2023-08-06T11:22:27;22.20;99.90
1996;DHT22;38556;47.068;15.408;2023-08-06T11:24:54;22.10;99.90
1996;DHT22;38556;47.068;15.408;2023-08-06T11:27:25;22.10;99.90
1996;DHT22;38556;47.068;15.408;2023-08-06T11:29:52;22.20;99.90
1996;DHT22;38556;47.068;15.408;2023-08-06T11:32:19;22.20;99.90
1996;DHT22;38556;47.068;15.408;2023-08-06T11:34:47;22.30;99.90
1996;DHT22;38556;47.068;15.408;2023-08-06T11:37:14;22.40;99.90
1996;DHT22;38556;47.068;15.408;2023-08-06T11:39:46;22.40;99.90
1996;DHT22;38556;47.068;15.408;2023-08-06T11:42:15;22.60;99.90
1996;DHT22;38556;47.068;15.408;2023-08-06T11:44:43;22.20;99.90
1996;DHT22;38556;47.068;15.408;2023-08-06T11:47:16;22.30;99.90
1996;DHT22;38556;47.068;15.408;2023-08-06T11:49:45;22.30;99.90
1996;DHT22;38556;47.068;15.408;2023-08-06T11:52:17;22.60;99.90
1996;DHT22;38556;47.068;15.408;2023-08-06T11:54:47;22.60;99.90
1996;DHT22;38556;47.068;15.408;2023-08-06T11:57:15;22.60;99.90
1996;DHT22;38556;47.068;15.408;2023-08-06T11:59:45;22.60;99.90
1996;DHT22;38556;47.068;15.408;2023-08-06T12:05:02;22.80;99.90
1996;DHT22;38556;47.068;15.408;2023-08-06T12:07:32;23.00;99.90
1996;DHT22;38556;47.068;15.408;2023-08-06T12:09:59;23.00;99.90
1996;DHT22;38556;47.068;15.408;2023-08-06T12:12:27;23.00;99.90
1996;DHT22;38556;47.068;15.408;2023-08-06T12:17:24;22.60;99.90
1996;DHT22;38556;47.068;15.408;2023-08-06T12:19:51;22.70;99.90
1996;DHT22;38556;47.068;15.408;2023-08-06T12:22:20;22.80;99.90
1996;DHT22;38556;47.068;15.408;2023-08-06T12:24:47;22.70;99.90
1996;DHT22;38556;47.068;15.408;2023-08-06T12:27:15;22.80;99.90
1996;DHT22;38556;47.068;15.408;2023-08-06T12:29:42;22.60;99.90
1996;DHT22;38556;47.068;15.408;2023-08-06T12:32:12;22.60;99.90
1996;DHT22;38556;47.068;15.408;2023-08-06T12:34:39;22.20;98.60
1996;DHT22;38556;47.068;15.408;2023-08-06T12:37:07;22.30;99.50
1996;DHT22;38556;47.068;15.408;2023-08-06T12:42:03;22.30;97.10
1996;DHT22;38556;47.068;15.408;2023-08-06T12:44:31;22.10;97.60
1996;DHT22;38556;47.068;15.408;2023-08-06T12:46:59;22.10;97.60
1996;DHT22;38556;47.068;15.408;2023-08-06T12:49:27;22.30;99.20
1996;DHT22;38556;47.068;15.408;2023-08-06T12:51:55;22.30;98.60
1996;DHT22;38556;47.068;15.408;2023-08-06T12:54:25;22.40;96.90
1996;DHT22;38556;47.068;15.408;2023-08-06T12:56:53;22.40;95.60
1996;DHT22;38556;47.068;15.408;2023-08-06T12:59:20;22.40;97.00
1996;DHT22;38556;47.068;15.408;2023-08-06T13:01:48;22.30;95.50
1996;DHT22;38556;47.068;15.408;2023-08-06T13:04:17;22.50;96.30
1996;DHT22;38556;47.068;15.408;2023-08-06T13:06:48;22.70;95.00
1996;DHT22;38556;47.068;15.408;2023-08-06T13:09:17;22.50;94.10
1996;DHT22;38556;47.068;15.408;2023-08-06T13:11:46;22.60;94.10
1996;DHT22;38556;47.068;15.408;2023-08-06T13:14:16;22.80;94.80
1996;DHT22;38556;47.068;15.408;2023-08-06T13:16:46;22.90;94.50
1996;DHT22;38556;47.068;15.408;2023-08-06T13:19:15;23.10;93.70
1996;DHT22;38556;47.068;15.408;2023-08-06T13:22:01;23.00;93.30
1996;DHT22;38556;47.068;15.408;2023-08-06T13:24:31;22.90;93.10
1996;DHT22;38556;47.068;15.408;2023-08-06T13:27:01;23.00;92.40
1996;DHT22;38556;47.068;15.408;2023-08-06T13:29:30;23.10;92.60
1996;DHT22;38556;47.068;15.408;2023-08-06T13:31:59;22.90;90.60
1996;DHT22;38556;47.068;15.408;2023-08-06T13:34:28;22.80;91.30
1996;DHT22;38556;47.068;15.408;2023-08-06T13:36:58;22.70;90.80
1996;DHT22;38556;47.068;15.408;2023-08-06T13:39:27;23.20;91.60
1996;DHT22;38556;47.068;15.408;2023-08-06T13:41:56;23.70;90.90
1996;DHT22;38556;47.068;15.408;2023-08-06T13:44:25;23.90;91.60
1996;DHT22;38556;47.068;15.408;2023-08-06T13:46:56;23.90;92.10
1996;DHT22;38556;47.068;15.408;2023-08-06T13:49:24;24.00;92.30
1996;DHT22;38556;47.068;15.408;2023-08-06T13:51:53;24.00;92.40
1996;DHT22;38556;47.068;15.408;2023-08-06T13:54:23;24.00;90.70
1996;DHT22;38556;47.068;15.408;2023-08-06T13:56:52;24.00;90.30
1996;DHT22;38556;47.068;15.408;2023-08-06T13:59:21;24.00;90.50
1996;DHT22;38556;47.068;15.408;2023-08-06T14:01:51;24.00;88.30
1996;DHT22;38556;47.068;15.408;2023-08-06T14:04:21;23.90;89.50
1996;DHT22;38556;47.068;15.408;2023-08-06T14:06:49;23.40;85.90
1996;DHT22;38556;47.068;15.408;2023-08-06T14:09:19;23.00;90.30
1996;DHT22;38556;47.068;15.408;2023-08-06T14:11:49;23.10;90.10
1996;DHT22;38556;47.068;15.408;2023-08-06T14:14:18;23.30;90.40
1996;DHT22;38556;47.068;15.408;2023-08-06T14:16:52;23.30;88.30
1996;DHT22;38556;47.068;15.408;2023-08-06T14:19:22;23.40;90.00
1996;DHT22;38556;47.068;15.408;2023-08-06T14:21:50;23.40;90.10
1996;DHT22;38556;47.068;15.408;2023-08-06T14:24:19;23.50;87.60
1996;DHT22;38556;47.068;15.408;2023-08-06T14:26:50;23.30;89.80
1996;DHT22;38556;47.068;15.408;2023-08-06T14:29:19;23.30;90.00
1996;DHT22;38556;47.068;15.408;2023-08-06T14:31:50;23.40;89.80
1996;DHT22;38556;47.068;15.408;2023-08-06T14:34:19;23.20;89.30
1996;DHT22;38556;47.068;15.408;2023-08-06T14:36:48;23.20;88.80
1996;DHT22;38556;47.068;15.408;2023-08-06T14:39:18;23.20;90.10
1996;DHT22;38556;47.068;15.408;2023-08-06T14:41:47;22.90;88.50
1996;DHT22;38556;47.068;15.408;2023-08-06T14:44:18;23.10;90.10
1996;DHT22;38556;47.068;15.408;2023-08-06T14:46:47;23.20;88.40
1996;DHT22;38556;47.068;15.408;2023-08-06T14:49:20;23.10;87.50
1996;DHT22;38556;47.068;15.408;2023-08-06T14:51:49;22.90;85.60
1996;DHT22;38556;47.068;15.408;2023-08-06T14:56:47;22.60;86.70
1996;DHT22;38556;47.068;15.408;2023-08-06T14:59:18;23.00;83.10
1996;DHT22;38556;47.068;15.408;2023-08-06T15:01:47;23.10;83.70
1996;DHT22;38556;47.068;15.408;2023-08-06T15:04:18;23.20;83.30
1996;DHT22;38556;47.068;15.408;2023-08-06T15:06:48;23.20;81.80
1996;DHT22;38556;47.068;15.408;2023-08-06T15:09:17;23.40;82.50
1996;DHT22;38556;47.068;15.408;2023-08-06T15:11:51;23.50;82.30
1996;DHT22;38556;47.068;15.408;2023-08-06T15:14:22;23.50;80.40
1996;DHT22;38556;47.068;15.408;2023-08-06T15:16:52;23.40;79.50
1996;DHT22;38556;47.068;15.408;2023-08-06T15:19:23;23.50;79.80
1996;DHT22;38556;47.068;15.408;2023-08-06T15:21:54;23.60;76.80
1996;DHT22;38556;47.068;15.408;2023-08-06T15:24:24;23.70;76.70
1996;DHT22;38556;47.068;15.408;2023-08-06T15:26:59;23.70;76.80
1996;DHT22;38556;47.068;15.408;2023-08-06T15:29:30;23.70;76.30
1996;DHT22;38556;47.068;15.408;2023-08-06T15:32:00;23.70;76.90
1996;DHT22;38556;47.068;15.408;2023-08-06T15:34:30;24.10;74.80
1996;DHT22;38556;47.068;15.408;2023-08-06T15:37:00;23.90;74.00
1996;DHT22;38556;47.068;15.408;2023-08-06T15:39:29;23.90;74.60
1996;DHT22;38556;47.068;15.408;2023-08-06T15:41:58;23.70;75.10
1996;DHT22;38556;47.068;15.408;2023-08-06T15:44:32;23.70;76.50
1996;DHT22;38556;47.068;15.408;2023-08-06T15:47:01;23.80;75.90
1996;DHT22;38556;47.068;15.408;2023-08-06T15:49:30;23.40;73.90
1996;DHT22;38556;47.068;15.408;2023-08-06T15:51:59;23.20;73.30
1996;DHT22;38556;47.068;15.408;2023-08-06T15:54:28;22.70;74.20
1996;DHT22;38556;47.068;15.408;2023-08-06T15:56:57;22.50;74.20
1996;DHT22;38556;47.068;15.408;2023-08-06T15:59:28;22.40;73.70
1996;DHT22;38556;47.068;15.408;2023-08-06T16:02:00;22.30;74.00
1996;DHT22;38556;47.068;15.408;2023-08-06T16:04:29;22.40;76.00
1996;DHT22;38556;47.068;15.408;2023-08-06T16:06:59;22.40;77.30